sensor_id;sensor_type;location;lat;lon;timestamp;temperature;humidity
71177;DHT22;58877;51.992;4.504;2022-10-29T00:01:48;15.23;85.17
71177;DHT22;58877;51.992;4.504;2022-10-29T00:04:13;15.25;85.33
71177;DHT22;58877;51.992;4.504;2022-10-29T00:06:39;15.22;85.16
71177;DHT22;58877;51.992;4.504;2022-10-29T00:09:05;15.19;85.35
71177;DHT22;58877;51.992;4.504;2022-10-29T00:11:31;15.13;85.37
71177;DHT22;58877;51.992;4.504;2022-10-29T00:14:01;15.15;85.31
71177;DHT22;58877;51.992;4.504;2022-10-29T00:16:32;15.13;85.24
71177;DHT22;58877;51.992;4.504;2022-10-29T00:18:59;15.09;85.36
71177;DHT22;58877;51.992;4.504;2022-10-29T00:21:25;15.13;85.46
71177;DHT22;58877;51.992;4.504;2022-10-29T00:23:51;15.16;85.50
71177;DHT22;58877;51.992;4.504;2022-10-29T00:26:19;15.13;85.49
71177;DHT22;58877;51.992;4.504;2022-10-29T00:28:45;15.06;85.58
71177;DHT22;58877;51.992;4.504;2022-10-29T00:31:16;15.08;85.69
71177;DHT22;58877;51.992;4.504;2022-10-29T00:33:44;15.06;85.72
71177;DHT22;58877;51.992;4.504;2022-10-29T00:36:13;15.09;85.61
71177;DHT22;58877;51.992;4.504;2022-10-29T00:38:38;15.02;85.36
71177;DHT22;58877;51.992;4.504;2022-10-29T00:41:07;14.99;85.33
71177;DHT22;58877;51.992;4.504;2022-10-29T00:43:36;14.93;85.23
71177;DHT22;58877;51.992;4.504;2022-10-29T00:48:35;14.81;85.27
71177;DHT22;58877;51.992;4.504;2022-10-29T00:51:05;14.74;85.23
71177;DHT22;58877;51.992;4.504;2022-10-29T00:53:37;14.71;85.18
71177;DHT22;58877;51.992;4.504;2022-10-29T00:56:04;14.71;85.12
71177;DHT22;58877;51.992;4.504;2022-10-29T00:58:30;14.64;84.98
71177;DHT22;58877;51.992;4.504;2022-10-29T01:00:56;14.52;84.77
71177;DHT22;58877;51.992;4.504;2022-10-29T01:03:21;14.44;84.67
71177;DHT22;58877;51.992;4.504;2022-10-29T01:05:51;14.34;84.71
71177;DHT22;58877;51.992;4.504;2022-10-29T01:08:18;14.24;84.93
71177;DHT22;58877;51.992;4.504;2022-10-29T01:13:56;14.11;85.05
71177;DHT22;58877;51.992;4.504;2022-10-29T01:28:02;14.20;85.20
71177;DHT22;58877;51.992;4.504;2022-10-29T01:33:24;14.11;85.25
71177;DHT22;58877;51.992;4.504;2022-10-29T01:36:24;14.10;85.42
71177;DHT22;58877;51.992;4.504;2022-10-29T01:44:47;14.16;85.38
71177;DHT22;58877;51.992;4.504;2022-10-29T01:47:17;14.06;85.19
71177;DHT22;58877;51.992;4.504;2022-10-29T01:49:58;13.94;84.93
71177;DHT22;58877;51.992;4.504;2022-10-29T01:52:28;13.81;84.88
71177;DHT22;58877;51.992;4.504;2022-10-29T01:54:57;13.73;85.00
71177;DHT22;58877;51.992;4.504;2022-10-29T01:57:37;13.69;85.01
71177;DHT22;58877;51.992;4.504;2022-10-29T02:00:10;13.63;85.11
71177;DHT22;58877;51.992;4.504;2022-10-29T02:05:26;13.66;85.43
71177;DHT22;58877;51.992;4.504;2022-10-29T02:10:37;13.67;85.37
71177;DHT22;58877;51.992;4.504;2022-10-29T02:13:07;13.66;85.44
71177;DHT22;58877;51.992;4.504;2022-10-29T02:15:45;13.65;85.38
71177;DHT22;58877;51.992;4.504;2022-10-29T02:18:13;13.63;85.30
71177;DHT22;58877;51.992;4.504;2022-10-29T02:20:43;13.60;85.33
71177;DHT22;58877;51.992;4.504;2022-10-29T02:23:10;13.58;85.29
71177;DHT22;58877;51.992;4.504;2022-10-29T02:25:36;13.65;85.35
71177;DHT22;58877;51.992;4.504;2022-10-29T02:28:01;13.63;85.10
71177;DHT22;58877;51.992;4.504;2022-10-29T02:30:30;13.67;85.41
71177;DHT22;58877;51.992;4.504;2022-10-29T02:32:55;13.79;85.64
71177;DHT22;58877;51.992;4.504;2022-10-29T02:35:21;13.90;85.77
71177;DHT22;58877;51.992;4.504;2022-10-29T02:37:46;13.96;85.82
71177;DHT22;58877;51.992;4.504;2022-10-29T02:40:13;14.04;85.88
71177;DHT22;58877;51.992;4.504;2022-10-29T02:42:38;14.14;86.02
71177;DHT22;58877;51.992;4.504;2022-10-29T02:45:04;14.17;86.09
71177;DHT22;58877;51.992;4.504;2022-10-29T02:47:30;14.23;86.01
71177;DHT22;58877;51.992;4.504;2022-10-29T02:49:55;14.21;85.82
71177;DHT22;58877;51.992;4.504;2022-10-29T02:52:21;14.20;85.91
71177;DHT22;58877;51.992;4.504;2022-10-29T02:54:47;14.14;85.51
71177;DHT22;58877;51.992;4.504;2022-10-29T02:57:13;14.16;85.62
71177;DHT22;58877;51.992;4.504;2022-10-29T02:59:38;14.16;85.44
71177;DHT22;58877;51.992;4.504;2022-10-29T03:02:04;14.18;85.39
71177;DHT22;58877;51.992;4.504;2022-10-29T03:04:30;14.21;85.46
71177;DHT22;58877;51.992;4.504;2022-10-29T03:06:56;14.24;85.50
71177;DHT22;58877;51.992;4.504;2022-10-29T03:09:21;14.23;85.54
71177;DHT22;58877;51.992;4.504;2022-10-29T03:11:47;14.33;85.69
71177;DHT22;58877;51.992;4.504;2022-10-29T03:14:13;14.31;85.61
71177;DHT22;58877;51.992;4.504;2022-10-29T03:16:38;14.35;85.64
71177;DHT22;58877;51.992;4.504;2022-10-29T03:19:03;14.34;85.52
71177;DHT22;58877;51.992;4.504;2022-10-29T03:21:29;14.33;85.62
71177;DHT22;58877;51.992;4.504;2022-10-29T03:23:55;14.31;85.75
71177;DHT22;58877;51.992;4.504;2022-10-29T03:26:21;14.28;85.73
71177;DHT22;58877;51.992;4.504;2022-10-29T03:28:46;14.28;85.87
71177;DHT22;58877;51.992;4.504;2022-10-29T03:31:12;14.33;85.95
71177;DHT22;58877;51.992;4.504;2022-10-29T03:33:37;14.35;86.06
71177;DHT22;58877;51.992;4.504;2022-10-29T03:36:06;14.37;85.82
71177;DHT22;58877;51.992;4.504;2022-10-29T03:38:32;14.40;85.90
71177;DHT22;58877;51.992;4.504;2022-10-29T03:40:59;14.40;85.79
71177;DHT22;58877;51.992;4.504;2022-10-29T03:43:25;14.45;85.94
71177;DHT22;58877;51.992;4.504;2022-10-29T03:45:52;14.54;85.93
71177;DHT22;58877;51.992;4.504;2022-10-29T03:48:18;14.63;85.72
71177;DHT22;58877;51.992;4.504;2022-10-29T03:50:55;14.67;85.55
71177;DHT22;58877;51.992;4.504;2022-10-29T03:53:22;14.68;85.64
71177;DHT22;58877;51.992;4.504;2022-10-29T03:55:49;14.71;85.66
71177;DHT22;58877;51.992;4.504;2022-10-29T03:58:15;14.71;85.68
71177;DHT22;58877;51.992;4.504;2022-10-29T04:00:41;14.74;85.81
71177;DHT22;58877;51.992;4.504;2022-10-29T04:03:06;14.78;85.82
71177;DHT22;58877;51.992;4.504;2022-10-29T04:05:32;14.82;85.84
71177;DHT22;58877;51.992;4.504;2022-10-29T04:07:57;14.82;85.67
71177;DHT22;58877;51.992;4.504;2022-10-29T04:10:23;14.86;85.72
71177;DHT22;58877;51.992;4.504;2022-10-29T04:12:53;14.82;85.78
71177;DHT22;58877;51.992;4.504;2022-10-29T04:15:18;14.85;85.81
71177;DHT22;58877;51.992;4.504;2022-10-29T04:17:44;14.89;85.83
71177;DHT22;58877;51.992;4.504;2022-10-29T04:20:10;14.92;85.63
71177;DHT22;58877;51.992;4.504;2022-10-29T04:22:36;14.89;85.65
71177;DHT22;58877;51.992;4.504;2022-10-29T04:25:02;14.91;85.64
71177;DHT22;58877;51.992;4.504;2022-10-29T04:27:27;14.92;85.66
71177;DHT22;58877;51.992;4.504;2022-10-29T04:29:53;14.95;85.73
71177;DHT22;58877;51.992;4.504;2022-10-29T04:32:18;14.99;85.58
71177;DHT22;58877;51.992;4.504;2022-10-29T04:34:44;15.05;85.45
71177;DHT22;58877;51.992;4.504;2022-10-29T04:37:09;15.00;85.33
71177;DHT22;58877;51.992;4.504;2022-10-29T04:39:35;14.99;85.45
71177;DHT22;58877;51.992;4.504;2022-10-29T04:42:01;14.95;85.49
71177;DHT22;58877;51.992;4.504;2022-10-29T04:44:26;14.92;85.56
71177;DHT22;58877;51.992;4.504;2022-10-29T04:46:52;14.93;85.53
71177;DHT22;58877;51.992;4.504;2022-10-29T04:49:17;14.93;85.66
71177;DHT22;58877;51.992;4.504;2022-10-29T04:51:43;15.00;85.46
71177;DHT22;58877;51.992;4.504;2022-10-29T04:54:08;15.05;85.18
71177;DHT22;58877;51.992;4.504;2022-10-29T04:56:34;15.03;85.12
71177;DHT22;58877;51.992;4.504;2022-10-29T04:58:59;15.02;84.96
71177;DHT22;58877;51.992;4.504;2022-10-29T05:01:25;15.00;85.23
71177;DHT22;58877;51.992;4.504;2022-10-29T05:03:51;15.03;85.32
71177;DHT22;58877;51.992;4.504;2022-10-29T05:06:16;15.03;85.19
71177;DHT22;58877;51.992;4.504;2022-10-29T05:08:42;15.00;85.27
71177;DHT22;58877;51.992;4.504;2022-10-29T05:11:07;14.98;85.45
71177;DHT22;58877;51.992;4.504;2022-10-29T05:13:33;14.99;85.33
71177;DHT22;58877;51.992;4.504;2022-10-29T05:15:59;14.95;85.35
71177;DHT22;58877;51.992;4.504;2022-10-29T05:18:25;14.98;85.51
71177;DHT22;58877;51.992;4.504;2022-10-29T05:20:54;15.03;85.45
71177;DHT22;58877;51.992;4.504;2022-10-29T05:23:20;15.06;85.28
71177;DHT22;58877;51.992;4.504;2022-10-29T05:25:47;15.02;85.32
71177;DHT22;58877;51.992;4.504;2022-10-29T05:28:16;15.00;85.44
71177;DHT22;58877;51.992;4.504;2022-10-29T05:30:46;14.95;85.48
71177;DHT22;58877;51.992;4.504;2022-10-29T05:33:18;14.96;85.52
71177;DHT22;58877;51.992;4.504;2022-10-29T05:35:44;14.96;85.56
71177;DHT22;58877;51.992;4.504;2022-10-29T05:38:11;14.99;85.59
71177;DHT22;58877;51.992;4.504;2022-10-29T05:40:38;14.99;85.57
71177;DHT22;58877;51.992;4.504;2022-10-29T05:43:04;15.00;85.44
71177;DHT22;58877;51.992;4.504;2022-10-29T05:45:30;14.99;85.50
71177;DHT22;58877;51.992;4.504;2022-10-29T05:47:58;15.03;85.49
71177;DHT22;58877;51.992;4.504;2022-10-29T05:50:24;14.99;85.33
71177;DHT22;58877;51.992;4.504;2022-10-29T05:52:54;14.99;85.43
71177;DHT22;58877;51.992;4.504;2022-10-29T05:55:20;14.99;85.46
71177;DHT22;58877;51.992;4.504;2022-10-29T05:57:46;14.99;85.44
71177;DHT22;58877;51.992;4.504;2022-10-29T06:00:12;15.03;85.33
71177;DHT22;58877;51.992;4.504;2022-10-29T06:02:38;15.06;85.20
71177;DHT22;58877;51.992;4.504;2022-10-29T06:05:04;15.09;85.10
71177;DHT22;58877;51.992;4.504;2022-10-29T06:07:30;15.12;85.09
71177;DHT22;58877;51.992;4.504;2022-10-29T06:09:56;15.08;85.16
71177;DHT22;58877;51.992;4.504;2022-10-29T06:12:22;15.12;85.17
71177;DHT22;58877;51.992;4.504;2022-10-29T06:14:47;15.12;85.31
71177;DHT22;58877;51.992;4.504;2022-10-29T06:17:13;15.16;85.28
71177;DHT22;58877;51.992;4.504;2022-10-29T06:19:39;15.19;85.19
71177;DHT22;58877;51.992;4.504;2022-10-29T06:22:04;15.18;85.18
71177;DHT22;58877;51.992;4.504;2022-10-29T06:24:30;15.16;85.25
71177;DHT22;58877;51.992;4.504;2022-10-29T06:26:55;15.22;85.32
71177;DHT22;58877;51.992;4.504;2022-10-29T06:29:21;15.18;85.08
71177;DHT22;58877;51.992;4.504;2022-10-29T06:31:47;15.13;85.28
71177;DHT22;58877;51.992;4.504;2022-10-29T06:34:12;15.15;85.27
71177;DHT22;58877;51.992;4.504;2022-10-29T06:36:39;15.19;85.33
71177;DHT22;58877;51.992;4.504;2022-10-29T06:39:04;15.19;85.33
71177;DHT22;58877;51.992;4.504;2022-10-29T06:41:30;15.23;85.38
71177;DHT22;58877;51.992;4.504;2022-10-29T06:43:55;15.25;85.43
71177;DHT22;58877;51.992;4.504;2022-10-29T06:46:21;15.26;85.48
71177;DHT22;58877;51.992;4.504;2022-10-29T06:48:47;15.29;85.35
71177;DHT22;58877;51.992;4.504;2022-10-29T06:51:12;15.30;85.49
71177;DHT22;58877;51.992;4.504;2022-10-29T06:53:38;15.30;85.60
71177;DHT22;58877;51.992;4.504;2022-10-29T06:56:03;15.39;85.65
71177;DHT22;58877;51.992;4.504;2022-10-29T06:58:29;15.39;85.63
71177;DHT22;58877;51.992;4.504;2022-10-29T07:00:55;15.44;85.60
71177;DHT22;58877;51.992;4.504;2022-10-29T07:03:21;15.49;85.67
71177;DHT22;58877;51.992;4.504;2022-10-29T07:05:58;15.50;85.84
71177;DHT22;58877;51.992;4.504;2022-10-29T07:08:24;15.54;85.94
71177;DHT22;58877;51.992;4.504;2022-10-29T07:10:56;15.61;85.99
71177;DHT22;58877;51.992;4.504;2022-10-29T07:13:22;15.66;86.05
71177;DHT22;58877;51.992;4.504;2022-10-29T07:15:48;15.71;86.17
71177;DHT22;58877;51.992;4.504;2022-10-29T07:18:17;15.76;86.25
71177;DHT22;58877;51.992;4.504;2022-10-29T07:20:45;15.79;86.39
71177;DHT22;58877;51.992;4.504;2022-10-29T07:23:12;15.90;86.46
71177;DHT22;58877;51.992;4.504;2022-10-29T07:25:39;16.00;86.20
71177;DHT22;58877;51.992;4.504;2022-10-29T07:28:16;16.07;86.39
71177;DHT22;58877;51.992;4.504;2022-10-29T07:30:43;16.15;86.46
71177;DHT22;58877;51.992;4.504;2022-10-29T07:33:12;16.24;86.31
71177;DHT22;58877;51.992;4.504;2022-10-29T07:35:44;16.32;86.30
71177;DHT22;58877;51.992;4.504;2022-10-29T07:38:26;16.35;86.08
71177;DHT22;58877;51.992;4.504;2022-10-29T07:41:06;16.41;85.96
71177;DHT22;58877;51.992;4.504;2022-10-29T07:43:34;16.45;85.69
71177;DHT22;58877;51.992;4.504;2022-10-29T07:46:00;16.48;85.74
71177;DHT22;58877;51.992;4.504;2022-10-29T07:48:28;16.54;85.56
71177;DHT22;58877;51.992;4.504;2022-10-29T07:50:57;16.59;85.38
71177;DHT22;58877;51.992;4.504;2022-10-29T07:53:26;16.59;85.43
71177;DHT22;58877;51.992;4.504;2022-10-29T07:55:57;16.68;85.23
71177;DHT22;58877;51.992;4.504;2022-10-29T07:58:26;16.71;85.17
71177;DHT22;58877;51.992;4.504;2022-10-29T08:00:53;16.78;85.08
71177;DHT22;58877;51.992;4.504;2022-10-29T08:03:19;16.83;85.07
71177;DHT22;58877;51.992;4.504;2022-10-29T08:09:18;16.95;84.98
71177;DHT22;58877;51.992;4.504;2022-10-29T08:11:47;17.02;84.70
71177;DHT22;58877;51.992;4.504;2022-10-29T08:14:21;17.09;84.32
71177;DHT22;58877;51.992;4.504;2022-10-29T08:16:47;17.13;84.29
71177;DHT22;58877;51.992;4.504;2022-10-29T08:19:12;17.13;84.20
71177;DHT22;58877;51.992;4.504;2022-10-29T08:21:38;17.19;84.18
71177;DHT22;58877;51.992;4.504;2022-10-29T08:24:08;17.20;84.22
71177;DHT22;58877;51.992;4.504;2022-10-29T08:26:34;17.23;84.12
71177;DHT22;58877;51.992;4.504;2022-10-29T08:29:00;17.30;84.17
71177;DHT22;58877;51.992;4.504;2022-10-29T08:31:28;17.36;84.31
71177;DHT22;58877;51.992;4.504;2022-10-29T08:33:59;17.47;84.05
71177;DHT22;58877;51.992;4.504;2022-10-29T08:36:27;17.50;84.26
71177;DHT22;58877;51.992;4.504;2022-10-29T08:38:53;17.60;83.93
71177;DHT22;58877;51.992;4.504;2022-10-29T08:41:34;17.69;83.84
71177;DHT22;58877;51.992;4.504;2022-10-29T08:44:28;17.78;83.52
71177;DHT22;58877;51.992;4.504;2022-10-29T08:47:18;17.85;83.54
71177;DHT22;58877;51.992;4.504;2022-10-29T08:50:05;17.90;82.99
71177;DHT22;58877;51.992;4.504;2022-10-29T08:52:46;17.95;82.92
71177;DHT22;58877;51.992;4.504;2022-10-29T08:55:33;18.05;82.96
71177;DHT22;58877;51.992;4.504;2022-10-29T08:58:27;18.15;82.69
71177;DHT22;58877;51.992;4.504;2022-10-29T09:01:13;18.11;82.27
71177;DHT22;58877;51.992;4.504;2022-10-29T09:03:41;18.07;82.27
71177;DHT22;58877;51.992;4.504;2022-10-29T09:15:01;18.04;82.55
71177;DHT22;58877;51.992;4.504;2022-10-29T09:26:24;18.24;82.23
71177;DHT22;58877;51.992;4.504;2022-10-29T09:29:01;18.28;82.37
71177;DHT22;58877;51.992;4.504;2022-10-29T09:31:42;18.34;81.95
71177;DHT22;58877;51.992;4.504;2022-10-29T09:37:13;18.37;81.80
71177;DHT22;58877;51.992;4.504;2022-10-29T09:39:49;18.37;81.98
71177;DHT22;58877;51.992;4.504;2022-10-29T09:42:33;18.45;81.88
71177;DHT22;58877;51.992;4.504;2022-10-29T09:45:06;18.45;81.69
71177;DHT22;58877;51.992;4.504;2022-10-29T09:51:05;18.41;81.76
71177;DHT22;58877;51.992;4.504;2022-10-29T09:53:07;18.44;82.01
71177;DHT22;58877;51.992;4.504;2022-10-29T09:55:44;18.53;81.78
71177;DHT22;58877;51.992;4.504;2022-10-29T09:58:22;18.59;81.70
71177;DHT22;58877;51.992;4.504;2022-10-29T10:00:49;18.66;81.32
71177;DHT22;58877;51.992;4.504;2022-10-29T10:03:22;18.73;81.31
71177;DHT22;58877;51.992;4.504;2022-10-29T10:06:00;18.88;80.84
71177;DHT22;58877;51.992;4.504;2022-10-29T10:08:30;18.99;80.35
71177;DHT22;58877;51.992;4.504;2022-10-29T10:11:05;19.07;80.25
71177;DHT22;58877;51.992;4.504;2022-10-29T10:13:37;19.17;79.87
71177;DHT22;58877;51.992;4.504;2022-10-29T10:16:23;19.12;79.31
71177;DHT22;58877;51.992;4.504;2022-10-29T10:18:49;19.12;79.48
71177;DHT22;58877;51.992;4.504;2022-10-29T10:21:32;19.12;78.97
71177;DHT22;58877;51.992;4.504;2022-10-29T10:24:34;19.23;79.35
71177;DHT22;58877;51.992;4.504;2022-10-29T10:27:23;19.40;78.99
71177;DHT22;58877;51.992;4.504;2022-10-29T10:30:16;19.61;78.67
71177;DHT22;58877;51.992;4.504;2022-10-29T10:32:50;19.82;77.85
71177;DHT22;58877;51.992;4.504;2022-10-29T10:38:50;20.09;76.46
71177;DHT22;58877;51.992;4.504;2022-10-29T10:41:34;20.29;75.48
71177;DHT22;58877;51.992;4.504;2022-10-29T10:44:05;20.45;74.96
71177;DHT22;58877;51.992;4.504;2022-10-29T10:47:22;20.49;74.36
71177;DHT22;58877;51.992;4.504;2022-10-29T10:49:55;20.60;74.34
71177;DHT22;58877;51.992;4.504;2022-10-29T10:52:39;20.75;74.48
71177;DHT22;58877;51.992;4.504;2022-10-29T10:55:19;20.77;73.23
71177;DHT22;58877;51.992;4.504;2022-10-29T11:01:15;20.84;72.64
71177;DHT22;58877;51.992;4.504;2022-10-29T11:03:42;20.87;72.49
71177;DHT22;58877;51.992;4.504;2022-10-29T11:06:26;20.97;72.83
71177;DHT22;58877;51.992;4.504;2022-10-29T11:11:56;21.06;72.06
71177;DHT22;58877;51.992;4.504;2022-10-29T11:14:31;21.17;72.17
71177;DHT22;58877;51.992;4.504;2022-10-29T11:17:01;21.26;71.42
71177;DHT22;58877;51.992;4.504;2022-10-29T11:19:48;21.33;70.80
71177;DHT22;58877;51.992;4.504;2022-10-29T11:30:23;21.40;70.13
71177;DHT22;58877;51.992;4.504;2022-10-29T11:35:44;21.61;69.56
71177;DHT22;58877;51.992;4.504;2022-10-29T11:38:20;21.75;69.50
71177;DHT22;58877;51.992;4.504;2022-10-29T11:43:36;22.08;68.09
71177;DHT22;58877;51.992;4.504;2022-10-29T11:46:15;22.15;67.63
71177;DHT22;58877;51.992;4.504;2022-10-29T11:48:58;22.31;67.16
71177;DHT22;58877;51.992;4.504;2022-10-29T11:54:09;22.42;66.52
71177;DHT22;58877;51.992;4.504;2022-10-29T11:56:45;22.52;65.93
71177;DHT22;58877;51.992;4.504;2022-10-29T12:05:16;22.72;64.44
71177;DHT22;58877;51.992;4.504;2022-10-29T12:12:56;22.79;65.13
71177;DHT22;58877;51.992;4.504;2022-10-29T12:28:46;22.83;63.52
71177;DHT22;58877;51.992;4.504;2022-10-29T12:31:34;23.04;63.38
71177;DHT22;58877;51.992;4.504;2022-10-29T12:37:16;23.40;62.58
71177;DHT22;58877;51.992;4.504;2022-10-29T12:40:21;23.47;62.61
71177;DHT22;58877;51.992;4.504;2022-10-29T12:42:48;23.47;62.11
71177;DHT22;58877;51.992;4.504;2022-10-29T12:45:37;23.48;62.64
71177;DHT22;58877;51.992;4.504;2022-10-29T12:48:15;23.58;62.60
71177;DHT22;58877;51.992;4.504;2022-10-29T12:50:45;23.62;62.27
71177;DHT22;58877;51.992;4.504;2022-10-29T12:53:21;23.48;62.55
71177;DHT22;58877;51.992;4.504;2022-10-29T12:55:51;23.48;63.23
71177;DHT22;58877;51.992;4.504;2022-10-29T13:09:21;23.48;63.95
71177;DHT22;58877;51.992;4.504;2022-10-29T13:11:55;23.55;63.48
71177;DHT22;58877;51.992;4.504;2022-10-29T13:17:54;23.54;63.77
71177;DHT22;58877;51.992;4.504;2022-10-29T13:20:22;23.58;64.17
71177;DHT22;58877;51.992;4.504;2022-10-29T13:22:58;23.58;64.46
71177;DHT22;58877;51.992;4.504;2022-10-29T13:30:40;23.37;64.69
71177;DHT22;58877;51.992;4.504;2022-10-29T13:49:01;23.48;65.13
71177;DHT22;58877;51.992;4.504;2022-10-29T13:51:37;23.41;65.36
71177;DHT22;58877;51.992;4.504;2022-10-29T13:54:34;23.44;66.06
71177;DHT22;58877;51.992;4.504;2022-10-29T14:00:04;23.50;66.13
71177;DHT22;58877;51.992;4.504;2022-10-29T14:02:33;23.48;66.10
71177;DHT22;58877;51.992;4.504;2022-10-29T14:05:26;23.46;66.55
71177;DHT22;58877;51.992;4.504;2022-10-29T14:08:10;23.46;66.59
71177;DHT22;58877;51.992;4.504;2022-10-29T14:13:29;23.41;66.99
71177;DHT22;58877;51.992;4.504;2022-10-29T14:16:09;23.47;67.06
71177;DHT22;58877;51.992;4.504;2022-10-29T14:18:43;23.43;67.17
71177;DHT22;58877;51.992;4.504;2022-10-29T14:21:26;23.40;67.44
71177;DHT22;58877;51.992;4.504;2022-10-29T14:23:57;23.44;67.44
71177;DHT22;58877;51.992;4.504;2022-10-29T14:26:23;23.40;67.86
71177;DHT22;58877;51.992;4.504;2022-10-29T14:28:50;23.33;68.24
71177;DHT22;58877;51.992;4.504;2022-10-29T14:31:24;23.23;68.61
71177;DHT22;58877;51.992;4.504;2022-10-29T14:34:00;23.17;68.90
71177;DHT22;58877;51.992;4.504;2022-10-29T14:36:39;23.13;69.28
71177;DHT22;58877;51.992;4.504;2022-10-29T14:39:27;23.10;69.24
71177;DHT22;58877;51.992;4.504;2022-10-29T14:41:56;23.08;69.22
71177;DHT22;58877;51.992;4.504;2022-10-29T14:44:28;23.04;69.17
71177;DHT22;58877;51.992;4.504;2022-10-29T14:47:10;22.99;69.22
71177;DHT22;58877;51.992;4.504;2022-10-29T14:49:43;22.87;69.54
71177;DHT22;58877;51.992;4.504;2022-10-29T14:52:28;22.86;69.53
71177;DHT22;58877;51.992;4.504;2022-10-29T14:54:58;22.82;69.47
71177;DHT22;58877;51.992;4.504;2022-10-29T14:57:31;22.82;69.19
71177;DHT22;58877;51.992;4.504;2022-10-29T15:00:04;22.70;69.54
71177;DHT22;58877;51.992;4.504;2022-10-29T15:02:37;22.74;69.65
71177;DHT22;58877;51.992;4.504;2022-10-29T15:07:44;22.86;69.57
71177;DHT22;58877;51.992;4.504;2022-10-29T15:12:37;22.73;69.64
71177;DHT22;58877;51.992;4.504;2022-10-29T15:15:23;22.60;69.83
71177;DHT22;58877;51.992;4.504;2022-10-29T15:17:57;22.55;70.13
71177;DHT22;58877;51.992;4.504;2022-10-29T15:20:50;22.50;69.99
71177;DHT22;58877;51.992;4.504;2022-10-29T15:23:18;22.49;69.90
71177;DHT22;58877;51.992;4.504;2022-10-29T15:25:48;22.48;69.82
71177;DHT22;58877;51.992;4.504;2022-10-29T15:28:23;22.46;69.91
71177;DHT22;58877;51.992;4.504;2022-10-29T15:30:48;22.39;69.96
71177;DHT22;58877;51.992;4.504;2022-10-29T15:33:23;22.33;69.83
71177;DHT22;58877;51.992;4.504;2022-10-29T15:35:53;22.32;70.01
71177;DHT22;58877;51.992;4.504;2022-10-29T15:41:33;22.28;70.22
71177;DHT22;58877;51.992;4.504;2022-10-29T15:44:00;22.18;70.35
71177;DHT22;58877;51.992;4.504;2022-10-29T15:46:29;22.12;70.46
71177;DHT22;58877;51.992;4.504;2022-10-29T15:48:55;22.01;70.73
71177;DHT22;58877;51.992;4.504;2022-10-29T15:51:28;21.98;70.76
71177;DHT22;58877;51.992;4.504;2022-10-29T15:53:57;21.91;70.76
71177;DHT22;58877;51.992;4.504;2022-10-29T15:56:27;21.84;70.89
71177;DHT22;58877;51.992;4.504;2022-10-29T15:58:55;21.78;71.14
71177;DHT22;58877;51.992;4.504;2022-10-29T16:01:23;21.74;71.11
71177;DHT22;58877;51.992;4.504;2022-10-29T16:03:48;21.69;71.15
71177;DHT22;58877;51.992;4.504;2022-10-29T16:06:14;21.62;71.34
71177;DHT22;58877;51.992;4.504;2022-10-29T16:08:50;21.54;71.42
71177;DHT22;58877;51.992;4.504;2022-10-29T16:11:18;21.48;71.52
71177;DHT22;58877;51.992;4.504;2022-10-29T16:13:50;21.45;71.52
71177;DHT22;58877;51.992;4.504;2022-10-29T16:16:19;21.31;71.71
71177;DHT22;58877;51.992;4.504;2022-10-29T16:18:46;21.22;71.89
71177;DHT22;58877;51.992;4.504;2022-10-29T16:21:17;21.14;72.07
71177;DHT22;58877;51.992;4.504;2022-10-29T16:23:44;21.10;72.08
71177;DHT22;58877;51.992;4.504;2022-10-29T16:26:21;21.07;72.13
71177;DHT22;58877;51.992;4.504;2022-10-29T16:28:48;20.96;72.28
71177;DHT22;58877;51.992;4.504;2022-10-29T16:31:21;20.92;72.34
71177;DHT22;58877;51.992;4.504;2022-10-29T16:33:49;20.84;72.42
71177;DHT22;58877;51.992;4.504;2022-10-29T16:36:16;20.79;72.44
71177;DHT22;58877;51.992;4.504;2022-10-29T16:38:42;20.76;72.58
71177;DHT22;58877;51.992;4.504;2022-10-29T16:41:16;20.68;72.61
71177;DHT22;58877;51.992;4.504;2022-10-29T16:43:43;20.62;72.75
71177;DHT22;58877;51.992;4.504;2022-10-29T16:46:10;20.56;72.77
71177;DHT22;58877;51.992;4.504;2022-10-29T16:48:37;20.48;72.97
71177;DHT22;58877;51.992;4.504;2022-10-29T16:51:03;20.43;73.03
71177;DHT22;58877;51.992;4.504;2022-10-29T16:53:29;20.45;73.02
71177;DHT22;58877;51.992;4.504;2022-10-29T16:55:55;20.40;72.98
71177;DHT22;58877;51.992;4.504;2022-10-29T16:58:21;20.32;73.13
71177;DHT22;58877;51.992;4.504;2022-10-29T17:00:47;20.28;73.14
71177;DHT22;58877;51.992;4.504;2022-10-29T17:03:14;20.24;73.19
71177;DHT22;58877;51.992;4.504;2022-10-29T17:05:42;20.19;73.42
71177;DHT22;58877;51.992;4.504;2022-10-29T17:08:08;20.15;73.43
71177;DHT22;58877;51.992;4.504;2022-10-29T17:10:34;20.05;73.71
71177;DHT22;58877;51.992;4.504;2022-10-29T17:13:00;19.95;74.05
71177;DHT22;58877;51.992;4.504;2022-10-29T17:15:26;19.95;74.24
71177;DHT22;58877;51.992;4.504;2022-10-29T17:17:52;19.91;74.38
71177;DHT22;58877;51.992;4.504;2022-10-29T17:20:18;19.91;74.53
71177;DHT22;58877;51.992;4.504;2022-10-29T17:22:44;19.89;74.53
71177;DHT22;58877;51.992;4.504;2022-10-29T17:25:09;19.88;74.62
71177;DHT22;58877;51.992;4.504;2022-10-29T17:27:41;19.91;74.62
71177;DHT22;58877;51.992;4.504;2022-10-29T17:30:08;19.97;74.55
71177;DHT22;58877;51.992;4.504;2022-10-29T17:32:34;20.02;74.30
71177;DHT22;58877;51.992;4.504;2022-10-29T17:34:59;20.07;74.12
71177;DHT22;58877;51.992;4.504;2022-10-29T17:37:26;20.09;73.99
71177;DHT22;58877;51.992;4.504;2022-10-29T17:39:51;20.09;73.85
71177;DHT22;58877;51.992;4.504;2022-10-29T17:42:17;20.08;73.65
71177;DHT22;58877;51.992;4.504;2022-10-29T17:44:42;20.12;73.56
71177;DHT22;58877;51.992;4.504;2022-10-29T17:47:08;20.15;73.10
71177;DHT22;58877;51.992;4.504;2022-10-29T17:49:36;20.21;72.77
71177;DHT22;58877;51.992;4.504;2022-10-29T17:52:02;20.19;72.57
71177;DHT22;58877;51.992;4.504;2022-10-29T17:54:27;20.18;72.28
71177;DHT22;58877;51.992;4.504;2022-10-29T17:56:53;20.14;72.19
71177;DHT22;58877;51.992;4.504;2022-10-29T17:59:18;20.19;71.98
71177;DHT22;58877;51.992;4.504;2022-10-29T18:01:44;20.14;71.76
71177;DHT22;58877;51.992;4.504;2022-10-29T18:04:10;20.14;71.52
71177;DHT22;58877;51.992;4.504;2022-10-29T18:06:35;20.15;71.39
71177;DHT22;58877;51.992;4.504;2022-10-29T18:09:01;20.18;71.07
71177;DHT22;58877;51.992;4.504;2022-10-29T18:11:28;20.22;71.02
71177;DHT22;58877;51.992;4.504;2022-10-29T18:13:55;20.25;70.73
71177;DHT22;58877;51.992;4.504;2022-10-29T18:16:23;20.30;70.46
71177;DHT22;58877;51.992;4.504;2022-10-29T18:18:51;20.35;69.84
71177;DHT22;58877;51.992;4.504;2022-10-29T18:21:20;20.30;69.88
71177;DHT22;58877;51.992;4.504;2022-10-29T18:23:46;20.21;69.99
71177;DHT22;58877;51.992;4.504;2022-10-29T18:26:38;20.15;70.23
71177;DHT22;58877;51.992;4.504;2022-10-29T18:29:06;20.17;70.04
71177;DHT22;58877;51.992;4.504;2022-10-29T18:31:33;20.14;69.83